createdAt,value
2023-09-09T00:01:11.262Z,17.15
2023-09-09T00:03:43.762Z,17.08
2023-09-09T00:06:15.698Z,17.12
2023-09-09T00:08:47.563Z,17.10
2023-09-09T00:11:18.919Z,17.08
2023-09-09T00:13:50.249Z,17.05
2023-09-09T00:16:21.890Z,17.04
2023-09-09T00:18:54.228Z,17.02
2023-09-09T00:21:25.678Z,16.98
2023-09-09T00:23:57.066Z,16.95
2023-09-09T00:26:29.827Z,16.95
2023-09-09T00:29:01.410Z,16.93
2023-09-09T00:31:32.962Z,16.91
2023-09-09T00:34:04.321Z,16.87
2023-09-09T00:36:35.646Z,16.84
2023-09-09T00:39:07.946Z,16.80
2023-09-09T00:41:39.400Z,16.77
2023-09-09T00:44:10.830Z,16.77
2023-09-09T00:46:42.403Z,16.73
2023-09-09T00:49:13.881Z,16.68
2023-09-09T00:51:46.187Z,16.63
2023-09-09T00:54:17.821Z,16.58
2023-09-09T00:56:51.503Z,16.53
2023-09-09T00:59:22.964Z,16.48
2023-09-09T01:01:54.556Z,16.46
2023-09-09T01:04:26.606Z,16.42
2023-09-09T01:06:59.401Z,16.39
2023-09-09T01:09:31.379Z,16.35
2023-09-09T01:12:04.265Z,16.31
2023-09-09T01:14:35.747Z,16.28
2023-09-09T01:17:07.576Z,16.24
2023-09-09T01:19:39.506Z,16.24
2023-09-09T01:22:13.005Z,16.21
2023-09-09T01:24:46.242Z,16.18
2023-09-09T01:27:17.596Z,16.15
2023-09-09T01:29:48.952Z,16.12
2023-09-09T01:32:20.370Z,16.09
2023-09-09T01:34:51.819Z,16.07
2023-09-09T01:37:23.681Z,16.07
2023-09-09T01:39:55.073Z,16.05
2023-09-09T01:42:26.536Z,16.03
2023-09-09T01:44:57.968Z,16.01
2023-09-09T01:47:29.312Z,15.98
2023-09-09T01:50:00.670Z,15.95
2023-09-09T01:52:32.141Z,15.93
2023-09-09T01:55:03.760Z,15.92
2023-09-09T01:57:35.159Z,15.91
2023-09-09T02:00:11.355Z,15.89
2023-09-09T02:02:42.666Z,15.88
2023-09-09T02:05:14.381Z,15.84
2023-09-09T02:07:45.674Z,15.80
2023-09-09T02:10:17.151Z,15.78
2023-09-09T02:12:48.484Z,15.78
2023-09-09T02:15:20.255Z,15.78
2023-09-09T02:17:51.624Z,15.78
2023-09-09T02:20:22.941Z,15.78
2023-09-09T02:22:54.198Z,15.77
2023-09-09T02:25:25.568Z,15.75
2023-09-09T02:27:56.923Z,15.75
2023-09-09T02:30:28.397Z,15.77
2023-09-09T02:33:00.417Z,15.75
2023-09-09T02:35:32.012Z,15.75
2023-09-09T02:38:03.450Z,15.74
2023-09-09T02:40:34.719Z,15.73
2023-09-09T02:43:06.503Z,15.71
2023-09-09T02:45:37.780Z,15.65
2023-09-09T02:48:09.461Z,15.67
2023-09-09T02:50:40.958Z,15.63
2023-09-09T02:53:12.284Z,15.65
2023-09-09T02:55:43.696Z,15.64
2023-09-09T02:58:15.444Z,15.60
2023-09-09T03:00:46.982Z,15.58
2023-09-09T03:03:18.614Z,15.54
2023-09-09T03:05:50.468Z,15.52
2023-09-09T03:08:21.773Z,15.51
2023-09-09T03:10:54.124Z,15.50
2023-09-09T03:13:25.412Z,15.48
2023-09-09T03:15:56.779Z,15.47
2023-09-09T03:18:28.304Z,15.43
2023-09-09T03:20:59.746Z,15.41
2023-09-09T03:23:31.212Z,15.39
2023-09-09T03:26:02.581Z,15.39
2023-09-09T03:28:33.949Z,15.37
2023-09-09T03:31:05.321Z,15.36
2023-09-09T03:33:36.846Z,15.35
2023-09-09T03:36:09.434Z,15.31
2023-09-09T03:38:41.416Z,15.29
2023-09-09T03:41:12.728Z,15.27
2023-09-09T03:43:44.393Z,15.24
2023-09-09T03:46:16.322Z,15.23
2023-09-09T03:48:47.712Z,15.21
2023-09-09T03:51:20.718Z,15.20
2023-09-09T03:53:52.060Z,15.18
2023-09-09T03:56:23.482Z,15.16
2023-09-09T03:58:54.797Z,15.14
2023-09-09T04:01:26.268Z,15.12
2023-09-09T04:03:57.910Z,15.12
2023-09-09T04:06:29.923Z,15.12
2023-09-09T04:09:01.466Z,15.10
2023-09-09T04:11:33.233Z,15.08
2023-09-09T04:14:04.565Z,15.05
2023-09-09T04:16:36.097Z,15.02
2023-09-09T04:19:07.717Z,15.00
2023-09-09T04:21:39.092Z,14.97
2023-09-09T04:24:10.882Z,14.96
2023-09-09T04:26:42.340Z,14.94
2023-09-09T04:29:13.795Z,14.93
2023-09-09T04:31:47.895Z,14.91
2023-09-09T04:34:19.288Z,14.89
2023-09-09T04:36:50.650Z,14.86
2023-09-09T04:39:22.089Z,14.83
2023-09-09T04:41:53.533Z,14.84
2023-09-09T04:44:25.206Z,14.82
2023-09-09T04:46:56.485Z,14.81
2023-09-09T04:49:28.501Z,14.79
2023-09-09T04:51:59.889Z,14.76
2023-09-09T04:54:31.284Z,14.74
2023-09-09T04:57:03.788Z,14.73
2023-09-09T04:59:35.610Z,14.73
2023-09-09T05:02:07.387Z,14.72
2023-09-09T05:04:38.755Z,14.71
2023-09-09T05:07:11.166Z,14.70
2023-09-09T05:09:42.569Z,14.68
2023-09-09T05:12:13.949Z,14.66
2023-09-09T05:14:45.443Z,14.64
2023-09-09T05:17:16.719Z,14.63
2023-09-09T05:19:47.999Z,14.64
2023-09-09T05:22:19.395Z,14.64
2023-09-09T05:24:50.806Z,14.62
2023-09-09T05:27:22.131Z,14.61
2023-09-09T05:29:53.425Z,14.60
2023-09-09T05:32:24.799Z,14.59
2023-09-09T05:34:56.184Z,14.58
2023-09-09T05:37:28.567Z,14.60
2023-09-09T05:40:04.190Z,14.59
2023-09-09T05:42:36.075Z,14.59
2023-09-09T05:45:10.351Z,14.59
2023-09-09T05:47:42.404Z,14.58
2023-09-09T05:50:14.258Z,14.58
2023-09-09T05:52:45.660Z,14.59
2023-09-09T05:55:17.352Z,14.61
2023-09-09T05:57:48.745Z,14.63
2023-09-09T06:00:21.228Z,14.63
2023-09-09T06:02:52.696Z,14.64
2023-09-09T06:05:24.871Z,14.64
2023-09-09T06:07:58.330Z,14.65
2023-09-09T06:10:29.765Z,14.65
2023-09-09T06:13:01.245Z,14.66
2023-09-09T06:15:32.738Z,14.69
2023-09-09T06:18:04.283Z,14.72
2023-09-09T06:20:35.603Z,14.75
2023-09-09T06:23:06.895Z,14.77
2023-09-09T06:25:38.388Z,14.79
2023-09-09T06:28:09.890Z,14.81
2023-09-09T06:30:45.350Z,14.84
2023-09-09T06:33:16.672Z,14.89
2023-09-09T06:35:55.585Z,14.97
2023-09-09T06:38:27.086Z,15.04
2023-09-09T06:40:58.455Z,15.10
2023-09-09T06:43:29.847Z,15.15
2023-09-09T06:46:01.925Z,15.22
2023-09-09T06:48:33.430Z,15.28
2023-09-09T06:51:05.091Z,15.33
2023-09-09T06:53:36.873Z,15.39
2023-09-09T06:56:09.321Z,15.47
2023-09-09T06:58:40.673Z,15.55
2023-09-09T07:01:13.060Z,15.62
2023-09-09T07:03:44.765Z,15.69
2023-09-09T07:06:16.232Z,15.74
2023-09-09T07:08:48.750Z,15.81
2023-09-09T07:11:18.785Z,15.88
2023-09-09T07:13:50.167Z,15.92
2023-09-09T07:16:23.046Z,15.96
2023-09-09T07:18:54.394Z,16.04
2023-09-09T07:21:25.838Z,16.10
2023-09-09T07:23:57.154Z,16.17
2023-09-09T07:26:28.931Z,16.24
2023-09-09T07:29:00.350Z,16.30
2023-09-09T07:31:31.951Z,16.37
2023-09-09T07:34:03.380Z,16.43
2023-09-09T07:36:34.804Z,16.48
2023-09-09T07:39:07.491Z,16.53
2023-09-09T07:41:38.863Z,16.57
2023-09-09T07:44:10.745Z,16.63
2023-09-09T07:46:43.065Z,16.71
2023-09-09T07:49:14.929Z,16.76
2023-09-09T07:51:47.503Z,16.82
2023-09-09T07:54:18.829Z,16.88
2023-09-09T07:56:50.218Z,16.94
2023-09-09T07:59:21.538Z,16.98
2023-09-09T08:01:52.967Z,17.04
2023-09-09T08:04:24.509Z,17.09
2023-09-09T08:06:56.059Z,17.14
2023-09-09T08:09:27.645Z,17.18
2023-09-09T08:11:58.935Z,17.22
2023-09-09T08:14:30.434Z,17.28
2023-09-09T08:17:01.864Z,17.34
2023-09-09T08:19:33.393Z,17.39
2023-09-09T08:22:04.878Z,17.45
2023-09-09T08:24:36.220Z,17.50
2023-09-09T08:27:08.378Z,17.55
2023-09-09T08:29:39.728Z,17.60
2023-09-09T08:32:11.436Z,17.64
2023-09-09T08:34:43.173Z,17.67
2023-09-09T08:37:16.421Z,17.72
2023-09-09T08:39:48.278Z,17.79
2023-09-09T08:42:32.624Z,17.85
2023-09-09T08:45:14.654Z,17.91
2023-09-09T08:47:49.899Z,17.97
2023-09-09T08:50:22.788Z,18.02
2023-09-09T08:52:56.816Z,18.08
2023-09-09T08:55:28.961Z,18.14
2023-09-09T08:58:00.756Z,18.18
2023-09-09T09:00:35.843Z,18.22
2023-09-09T09:03:09.057Z,18.25
2023-09-09T09:05:43.175Z,18.29
2023-09-09T09:08:14.762Z,18.35
2023-09-09T09:10:48.447Z,18.40
2023-09-09T09:13:19.935Z,18.46
2023-09-09T09:15:51.312Z,18.50
2023-09-09T09:18:23.007Z,18.55
2023-09-09T09:20:54.634Z,18.60
2023-09-09T09:23:25.986Z,18.66
2023-09-09T09:25:57.262Z,18.74
2023-09-09T09:28:31.166Z,18.80
2023-09-09T09:31:02.438Z,18.86
2023-09-09T09:33:35.085Z,18.93
2023-09-09T09:36:07.090Z,18.99
2023-09-09T09:38:38.691Z,19.09
2023-09-09T09:41:12.336Z,19.17
2023-09-09T09:43:43.881Z,19.25
2023-09-09T09:46:19.268Z,19.30
2023-09-09T09:48:51.097Z,19.33
2023-09-09T09:51:22.468Z,19.39
2023-09-09T09:53:56.896Z,19.41
2023-09-09T09:56:28.331Z,19.46
2023-09-09T09:58:59.753Z,19.49
2023-09-09T10:01:31.836Z,19.50
2023-09-09T10:04:07.775Z,19.52
2023-09-09T10:06:42.321Z,19.56
2023-09-09T10:09:19.273Z,19.60
2023-09-09T10:12:04.448Z,19.64
2023-09-09T10:14:38.469Z,19.68
2023-09-09T10:17:10.710Z,19.73
2023-09-09T10:19:43.527Z,19.81
2023-09-09T10:22:15.486Z,19.88
2023-09-09T10:24:48.682Z,19.96
2023-09-09T10:27:21.560Z,20.03
2023-09-09T10:29:53.428Z,20.10
2023-09-09T10:32:27.540Z,20.16
2023-09-09T10:35:00.771Z,20.24
2023-09-09T10:37:34.740Z,20.31
2023-09-09T10:40:08.906Z,20.37
2023-09-09T10:42:42.940Z,20.50
2023-09-09T10:45:29.426Z,20.64
2023-09-09T10:48:02.876Z,20.78
2023-09-09T10:50:46.315Z,20.90
2023-09-09T10:53:21.023Z,20.99
2023-09-09T10:55:56.331Z,21.08
2023-09-09T10:58:36.152Z,21.16
2023-09-09T11:01:09.276Z,21.22
2023-09-09T11:03:50.189Z,21.27
2023-09-09T11:06:26.598Z,21.31
2023-09-09T11:09:00.179Z,21.37
2023-09-09T11:11:36.275Z,21.42
2023-09-09T11:14:09.389Z,21.47
2023-09-09T11:16:42.267Z,21.51
2023-09-09T11:19:15.066Z,21.54
2023-09-09T11:21:48.079Z,21.57
2023-09-09T11:24:19.947Z,21.62
2023-09-09T11:26:52.660Z,21.67
2023-09-09T11:29:36.125Z,21.70
2023-09-09T11:32:11.625Z,21.75
2023-09-09T11:34:43.206Z,21.78
2023-09-09T11:37:14.630Z,21.80
2023-09-09T11:39:46.404Z,21.82
2023-09-09T11:42:18.747Z,21.83
2023-09-09T11:44:50.275Z,21.85
2023-09-09T11:47:22.289Z,21.87
2023-09-09T11:49:53.621Z,21.91
2023-09-09T11:52:25.917Z,22.00
2023-09-09T11:54:56.265Z,22.09
2023-09-09T11:57:27.768Z,22.20
2023-09-09T12:00:01.985Z,22.30
2023-09-09T12:02:33.853Z,22.40
2023-09-09T12:05:06.596Z,22.50
2023-09-09T12:07:40.236Z,22.62
2023-09-09T12:10:15.949Z,22.71
2023-09-09T12:12:49.052Z,22.80
2023-09-09T12:15:21.434Z,22.84
2023-09-09T12:17:53.367Z,22.87
2023-09-09T12:20:25.268Z,22.94
2023-09-09T12:22:57.130Z,22.99
2023-09-09T12:25:36.591Z,23.01
2023-09-09T12:28:19.729Z,23.02
2023-09-09T12:30:53.914Z,23.01
2023-09-09T12:33:26.109Z,22.98
2023-09-09T12:35:56.321Z,22.95
2023-09-09T12:38:29.458Z,22.93
2023-09-09T12:41:08.599Z,22.94
2023-09-09T12:43:40.737Z,22.96
2023-09-09T12:46:19.297Z,22.97
2023-09-09T12:48:56.727Z,22.96
2023-09-09T12:51:30.821Z,22.95
2023-09-09T12:54:02.750Z,22.94
2023-09-09T12:56:34.523Z,22.94
2023-09-09T12:59:07.348Z,22.92
2023-09-09T13:01:39.910Z,22.90
2023-09-09T13:04:11.807Z,22.88
2023-09-09T13:06:43.590Z,22.86
2023-09-09T13:09:15.286Z,22.87
2023-09-09T13:11:47.004Z,22.87
2023-09-09T13:14:25.316Z,22.90
2023-09-09T13:16:58.664Z,22.94
2023-09-09T13:19:32.384Z,22.98
2023-09-09T13:22:07.493Z,23.02
2023-09-09T13:24:39.428Z,23.04
2023-09-09T13:27:11.266Z,23.07
2023-09-09T13:29:43.270Z,23.09
2023-09-09T13:32:15.050Z,23.10
2023-09-09T13:34:47.013Z,23.10
2023-09-09T13:37:18.983Z,23.12
2023-09-09T13:39:50.649Z,23.11
2023-09-09T13:42:23.402Z,23.10
2023-09-09T13:47:28.623Z,23.08
2023-09-09T13:50:05.712Z,23.05
2023-09-09T13:52:37.536Z,23.07
2023-09-09T13:55:10.257Z,23.11
2023-09-09T13:57:41.517Z,23.13
2023-09-09T14:00:14.705Z,23.13
2023-09-09T14:02:46.100Z,23.11
2023-09-09T14:05:17.709Z,23.10
2023-09-09T14:07:48.999Z,23.09
2023-09-09T14:10:20.712Z,23.07
2023-09-09T14:12:52.021Z,23.05
2023-09-09T14:15:23.530Z,23.01
2023-09-09T14:17:55.025Z,22.98
2023-09-09T14:20:27.394Z,22.93
2023-09-09T14:22:57.218Z,22.88
2023-09-09T14:25:28.762Z,22.83
2023-09-09T14:27:59.998Z,22.79
2023-09-09T14:30:31.387Z,22.75
2023-09-09T14:33:03.097Z,22.71
2023-09-09T14:35:34.577Z,22.69
2023-09-09T14:38:06.268Z,22.68
2023-09-09T14:40:37.584Z,22.67
2023-09-09T14:43:08.874Z,22.66
2023-09-09T14:45:40.349Z,22.64
2023-09-09T14:48:15.428Z,22.64
2023-09-09T14:50:47.080Z,22.64
2023-09-09T14:53:18.669Z,22.71
2023-09-09T14:55:50.277Z,22.79
2023-09-09T14:58:21.827Z,22.85
2023-09-09T15:00:53.201Z,22.87
2023-09-09T15:03:24.764Z,22.88
2023-09-09T15:05:57.159Z,22.88
2023-09-09T15:08:28.541Z,22.87
2023-09-09T15:11:00.052Z,22.84
2023-09-09T15:13:31.603Z,22.83
2023-09-09T15:16:07.793Z,22.82
2023-09-09T15:18:39.436Z,22.80
2023-09-09T15:21:11.148Z,22.76
2023-09-09T15:23:42.485Z,22.74
2023-09-09T15:26:13.889Z,22.75
2023-09-09T15:28:45.265Z,22.75
2023-09-09T15:31:18.338Z,22.78
2023-09-09T15:33:49.915Z,22.80
2023-09-09T15:36:21.525Z,22.82
2023-09-09T15:38:52.808Z,22.83
2023-09-09T15:41:25.102Z,22.82
2023-09-09T15:43:56.454Z,22.81
2023-09-09T15:46:28.055Z,22.80
2023-09-09T15:48:59.490Z,22.77
2023-09-09T15:51:30.993Z,22.74
2023-09-09T15:54:03.061Z,22.73
2023-09-09T15:56:34.454Z,22.73
2023-09-09T15:59:06.134Z,22.73
2023-09-09T16:01:37.518Z,22.72
2023-09-09T16:04:09.283Z,22.69
2023-09-09T16:06:40.870Z,22.64
2023-09-09T16:09:12.200Z,22.58
2023-09-09T16:11:43.577Z,22.52
2023-09-09T16:14:15.759Z,22.45
2023-09-09T16:16:47.250Z,22.39
2023-09-09T16:19:18.737Z,22.37
2023-09-09T16:21:50.034Z,22.36
2023-09-09T16:24:22.773Z,22.35
2023-09-09T16:26:54.371Z,22.34
2023-09-09T16:29:25.649Z,22.32
2023-09-09T16:31:57.275Z,22.30
2023-09-09T16:34:30.808Z,22.28
2023-09-09T16:37:02.127Z,22.26
2023-09-09T16:39:34.033Z,22.22
2023-09-09T16:42:07.132Z,22.18
2023-09-09T16:44:38.442Z,22.15
2023-09-09T16:47:10.003Z,22.11
2023-09-09T16:49:41.478Z,22.06
2023-09-09T16:52:13.049Z,22.02
2023-09-09T16:54:44.411Z,21.97
2023-09-09T16:57:15.755Z,21.95
2023-09-09T16:59:47.077Z,21.93
2023-09-09T17:02:18.502Z,21.90
2023-09-09T17:04:50.020Z,21.88
2023-09-09T17:07:21.535Z,21.85
2023-09-09T17:09:53.184Z,21.83
2023-09-09T17:12:24.764Z,21.81
2023-09-09T17:14:56.165Z,21.79
2023-09-09T17:17:27.571Z,21.77
2023-09-09T17:19:59.170Z,21.75
2023-09-09T17:22:30.636Z,21.72
2023-09-09T17:25:01.995Z,21.69
2023-09-09T17:27:33.329Z,21.69
2023-09-09T17:30:05.235Z,21.69
2023-09-09T17:32:36.538Z,21.69
2023-09-09T17:35:09.633Z,21.66
2023-09-09T17:37:41.190Z,21.66
2023-09-09T17:40:13.586Z,21.64
2023-09-09T17:42:43.410Z,21.62
2023-09-09T17:45:15.192Z,21.59
2023-09-09T17:47:46.606Z,21.56
2023-09-09T17:50:17.959Z,21.53
2023-09-09T17:52:49.494Z,21.51
2023-09-09T17:55:21.338Z,21.50
2023-09-09T17:57:52.740Z,21.50
2023-09-09T18:00:24.387Z,21.49
2023-09-09T18:02:56.221Z,21.48
2023-09-09T18:05:27.780Z,21.46
2023-09-09T18:07:59.206Z,21.45
2023-09-09T18:10:30.612Z,21.42
2023-09-09T18:13:01.969Z,21.40
2023-09-09T18:15:33.333Z,21.39
2023-09-09T18:18:04.911Z,21.38
2023-09-09T18:20:36.341Z,21.37
2023-09-09T18:23:07.776Z,21.36
2023-09-09T18:25:39.134Z,21.35
2023-09-09T18:28:10.490Z,21.34
2023-09-09T18:30:46.156Z,21.33
2023-09-09T18:33:17.442Z,21.31
2023-09-09T18:35:49.032Z,21.29
2023-09-09T18:38:20.353Z,21.27
2023-09-09T18:40:54.144Z,21.27
2023-09-09T18:43:25.609Z,21.26
2023-09-09T18:45:59.130Z,21.25
2023-09-09T18:48:30.515Z,21.24
2023-09-09T18:51:02.416Z,21.23
2023-09-09T18:53:34.018Z,21.22
2023-09-09T18:56:05.753Z,21.20
2023-09-09T18:58:37.631Z,21.19
2023-09-09T19:01:09.230Z,21.17
2023-09-09T19:03:40.939Z,21.16
2023-09-09T19:06:12.629Z,21.15
2023-09-09T19:08:44.052Z,21.14
2023-09-09T19:11:17.151Z,21.14
2023-09-09T19:13:48.634Z,21.12
2023-09-09T19:16:20.042Z,21.11
2023-09-09T19:18:52.559Z,21.10
2023-09-09T19:21:25.683Z,21.08
2023-09-09T19:23:57.426Z,21.06
2023-09-09T19:26:29.075Z,21.04
2023-09-09T19:29:00.513Z,21.02
2023-09-09T19:31:32.244Z,21.02
2023-09-09T19:34:03.653Z,21.01
2023-09-09T19:36:35.031Z,21.00
2023-09-09T19:39:06.583Z,20.97
2023-09-09T19:41:38.917Z,20.96
2023-09-09T19:44:10.363Z,20.94
2023-09-09T19:46:41.838Z,20.93
2023-09-09T19:49:13.209Z,20.90
2023-09-09T19:51:44.739Z,20.88
2023-09-09T19:54:16.204Z,20.86
2023-09-09T19:56:49.685Z,20.83
2023-09-09T19:59:22.796Z,20.83
2023-09-09T20:01:54.345Z,20.82
2023-09-09T20:04:26.327Z,20.80
2023-09-09T20:06:57.765Z,20.77
2023-09-09T20:09:29.092Z,20.74
2023-09-09T20:12:01.314Z,20.72
2023-09-09T20:14:32.752Z,20.69
2023-09-09T20:17:04.418Z,20.66
2023-09-09T20:19:36.698Z,20.63
2023-09-09T20:22:08.240Z,20.62
2023-09-09T20:24:39.545Z,20.61
2023-09-09T20:27:10.922Z,20.58
2023-09-09T20:29:42.242Z,20.56
2023-09-09T20:32:13.611Z,20.51
2023-09-09T20:34:44.960Z,20.51
2023-09-09T20:37:16.328Z,20.50
2023-09-09T20:39:47.915Z,20.50
2023-09-09T20:42:19.270Z,20.47
2023-09-09T20:44:50.585Z,20.45
2023-09-09T20:47:22.003Z,20.45
2023-09-09T20:49:53.465Z,20.44
2023-09-09T20:52:25.094Z,20.44
2023-09-09T20:54:56.755Z,20.41
2023-09-09T20:57:28.080Z,20.39
2023-09-09T20:59:59.405Z,20.36
2023-09-09T21:02:30.728Z,20.34
2023-09-09T21:05:02.451Z,20.29
2023-09-09T21:07:33.938Z,20.27
2023-09-09T21:10:06.576Z,20.23
2023-09-09T21:12:37.872Z,20.21
2023-09-09T21:15:11.121Z,20.19
2023-09-09T21:17:42.640Z,20.17
2023-09-09T21:20:15.500Z,20.14
2023-09-09T21:22:47.593Z,20.12
2023-09-09T21:25:29.883Z,20.10
2023-09-09T21:28:04.262Z,20.07
2023-09-09T21:30:37.954Z,20.03
2023-09-09T21:33:09.633Z,20.00
2023-09-09T21:35:41.094Z,19.98
2023-09-09T21:38:12.416Z,19.96
2023-09-09T21:40:43.707Z,19.93
2023-09-09T21:43:17.136Z,19.90
2023-09-09T21:45:48.555Z,19.87
2023-09-09T21:48:19.939Z,19.83
2023-09-09T21:50:51.377Z,19.80
2023-09-09T21:53:24.853Z,19.78
2023-09-09T21:55:56.283Z,19.76
2023-09-09T21:58:27.827Z,19.74
2023-09-09T22:00:59.279Z,19.71
2023-09-09T22:03:30.795Z,19.68
2023-09-09T22:06:02.222Z,19.64
2023-09-09T22:08:33.810Z,19.62
2023-09-09T22:11:07.434Z,19.58
2023-09-09T22:13:40.635Z,19.55
2023-09-09T22:16:12.637Z,19.54
2023-09-09T22:18:43.910Z,19.52
2023-09-09T22:21:15.192Z,19.48
2023-09-09T22:23:46.558Z,19.44
2023-09-09T22:26:28.830Z,19.38
2023-09-09T22:29:00.856Z,19.31
2023-09-09T22:31:32.516Z,19.25
2023-09-09T22:34:03.969Z,19.21
2023-09-09T22:36:35.404Z,19.17
2023-09-09T22:39:06.795Z,19.13
2023-09-09T22:41:38.102Z,19.09
2023-09-09T22:44:10.294Z,19.05
2023-09-09T22:46:41.661Z,19.02
2023-09-09T22:49:14.171Z,18.97
2023-09-09T22:51:45.340Z,18.93
2023-09-09T22:54:16.804Z,18.89
2023-09-09T22:56:48.042Z,18.87
2023-09-09T22:59:19.323Z,18.85
2023-09-09T23:01:50.822Z,18.84
2023-09-09T23:04:22.279Z,18.84
2023-09-09T23:06:53.587Z,18.83
2023-09-09T23:09:24.833Z,18.83
2023-09-09T23:11:56.235Z,18.80
2023-09-09T23:14:27.660Z,18.78
2023-09-09T23:16:59.117Z,18.78
2023-09-09T23:19:30.490Z,18.76
2023-09-09T23:22:01.833Z,18.75
2023-09-09T23:24:33.129Z,18.72
2023-09-09T23:27:04.726Z,18.70
2023-09-09T23:29:36.130Z,18.68
2023-09-09T23:32:08.652Z,18.66
2023-09-09T23:34:41.409Z,18.66
2023-09-09T23:37:13.317Z,18.66
2023-09-09T23:39:44.558Z,18.64
2023-09-09T23:42:15.836Z,18.61
2023-09-09T23:44:47.288Z,18.59
2023-09-09T23:47:18.547Z,18.56
2023-09-09T23:49:50.360Z,18.54
2023-09-09T23:52:21.618Z,18.53
2023-09-09T23:54:53.041Z,18.55
2023-09-09T23:57:24.425Z,18.53
2023-09-09T23:59:56.078Z,18.52
